sensor_id;sensor_type;location;lat;lon;timestamp;P1;P2;P0
81640;PMS5003;71053;50.722;-1.944;2023-08-06T00:01:23;2;2;
81640;PMS5003;71053;50.722;-1.944;2023-08-06T00:03:49;3;3;
81640;PMS5003;71053;50.722;-1.944;2023-08-06T00:06:14;2;2;
81640;PMS5003;71053;50.722;-1.944;2023-08-06T00:08:39;3;3;
81640;PMS5003;71053;50.722;-1.944;2023-08-06T00:11:05;3;3;
81640;PMS5003;71053;50.722;-1.944;2023-08-06T00:13:30;4;4;
81640;PMS5003;71053;50.722;-1.944;2023-08-06T00:15:55;4;3;
81640;PMS5003;71053;50.722;-1.944;2023-08-06T00:18:21;2;2;
81640;PMS5003;71053;50.722;-1.944;2023-08-06T00:20:46;2;2;
81640;PMS5003;71053;50.722;-1.944;2023-08-06T00:23:11;4;2;
81640;PMS5003;71053;50.722;-1.944;2023-08-06T00:25:36;2;2;
81640;PMS5003;71053;50.722;-1.944;2023-08-06T00:28:02;2;2;
81640;PMS5003;71053;50.722;-1.944;2023-08-06T00:30:27;2;2;
81640;PMS5003;71053;50.722;-1.944;2023-08-06T00:32:52;3;2;
81640;PMS5003;71053;50.722;-1.944;2023-08-06T00:35:18;3;2;
81640;PMS5003;71053;50.722;-1.944;2023-08-06T00:37:43;2;2;
81640;PMS5003;71053;50.722;-1.944;2023-08-06T00:40:08;2;1;
81640;PMS5003;71053;50.722;-1.944;2023-08-06T00:42:34;2;2;
81640;PMS5003;71053;50.722;-1.944;2023-08-06T00:44:59;3;3;
81640;PMS5003;71053;50.722;-1.944;2023-08-06T00:47:24;2;2;
81640;PMS5003;71053;50.722;-1.944;2023-08-06T00:49:50;3;3;
81640;PMS5003;71053;50.722;-1.944;2023-08-06T00:52:15;3;3;
81640;PMS5003;71053;50.722;-1.944;2023-08-06T00:54:40;3;3;
81640;PMS5003;71053;50.722;-1.944;2023-08-06T00:57:06;2;2;
81640;PMS5003;71053;50.722;-1.944;2023-08-06T00:59:31;3;3;
81640;PMS5003;71053;50.722;-1.944;2023-08-06T01:01:56;2;2;
81640;PMS5003;71053;50.722;-1.944;2023-08-06T01:04:22;2;2;
81640;PMS5003;71053;50.722;-1.944;2023-08-06T01:06:47;3;3;
81640;PMS5003;71053;50.722;-1.944;2023-08-06T01:09:15;2;2;
81640;PMS5003;71053;50.722;-1.944;2023-08-06T01:11:40;3;3;
81640;PMS5003;71053;50.722;-1.944;2023-08-06T01:14:05;2;2;
81640;PMS5003;71053;50.722;-1.944;2023-08-06T01:16:28;3;3;
81640;PMS5003;71053;50.722;-1.944;2023-08-06T01:18:54;2;2;
81640;PMS5003;71053;50.722;-1.944;2023-08-06T01:21:19;3;3;
81640;PMS5003;71053;50.722;-1.944;2023-08-06T01:23:45;3;3;
81640;PMS5003;71053;50.722;-1.944;2023-08-06T01:26:11;2;2;
81640;PMS5003;71053;50.722;-1.944;2023-08-06T01:28:37;2;2;
81640;PMS5003;71053;50.722;-1.944;2023-08-06T01:31:01;2;2;
81640;PMS5003;71053;50.722;-1.944;2023-08-06T01:33:26;3;3;
81640;PMS5003;71053;50.722;-1.944;2023-08-06T01:35:51;2;2;
81640;PMS5003;71053;50.722;-1.944;2023-08-06T01:38:16;3;2;
81640;PMS5003;71053;50.722;-1.944;2023-08-06T01:40:42;3;3;
81640;PMS5003;71053;50.722;-1.944;2023-08-06T01:43:07;3;3;
81640;PMS5003;71053;50.722;-1.944;2023-08-06T01:45:32;3;3;
81640;PMS5003;71053;50.722;-1.944;2023-08-06T01:47:58;4;4;
81640;PMS5003;71053;50.722;-1.944;2023-08-06T01:50:23;2;2;
81640;PMS5003;71053;50.722;-1.944;2023-08-06T01:52:48;3;3;
81640;PMS5003;71053;50.722;-1.944;2023-08-06T01:55:14;2;2;
81640;PMS5003;71053;50.722;-1.944;2023-08-06T01:57:39;3;3;
81640;PMS5003;71053;50.722;-1.944;2023-08-06T02:00:05;1;1;
81640;PMS5003;71053;50.722;-1.944;2023-08-06T02:02:30;2;2;
81640;PMS5003;71053;50.722;-1.944;2023-08-06T02:04:55;3;3;
81640;PMS5003;71053;50.722;-1.944;2023-08-06T02:07:20;3;3;
81640;PMS5003;71053;50.722;-1.944;2023-08-06T02:09:46;3;3;
81640;PMS5003;71053;50.722;-1.944;2023-08-06T02:12:11;2;2;
81640;PMS5003;71053;50.722;-1.944;2023-08-06T02:14:36;2;2;
81640;PMS5003;71053;50.722;-1.944;2023-08-06T02:17:02;3;3;
81640;PMS5003;71053;50.722;-1.944;2023-08-06T02:19:28;3;3;
81640;PMS5003;71053;50.722;-1.944;2023-08-06T02:21:52;2;2;
81640;PMS5003;71053;50.722;-1.944;2023-08-06T02:24:18;2;2;
81640;PMS5003;71053;50.722;-1.944;2023-08-06T02:26:43;2;2;
81640;PMS5003;71053;50.722;-1.944;2023-08-06T02:29:09;3;3;
81640;PMS5003;71053;50.722;-1.944;2023-08-06T02:31:34;2;2;
81640;PMS5003;71053;50.722;-1.944;2023-08-06T02:33:59;2;2;
81640;PMS5003;71053;50.722;-1.944;2023-08-06T02:36:25;3;3;
81640;PMS5003;71053;50.722;-1.944;2023-08-06T02:38:50;3;3;
81640;PMS5003;71053;50.722;-1.944;2023-08-06T02:41:15;2;2;
81640;PMS5003;71053;50.722;-1.944;2023-08-06T02:43:41;3;3;
81640;PMS5003;71053;50.722;-1.944;2023-08-06T02:46:06;4;3;
81640;PMS5003;71053;50.722;-1.944;2023-08-06T02:48:31;3;3;
81640;PMS5003;71053;50.722;-1.944;2023-08-06T02:50:57;2;2;
81640;PMS5003;71053;50.722;-1.944;2023-08-06T02:53:22;3;2;
81640;PMS5003;71053;50.722;-1.944;2023-08-06T02:55:48;4;4;
81640;PMS5003;71053;50.722;-1.944;2023-08-06T02:58:13;4;3;
81640;PMS5003;71053;50.722;-1.944;2023-08-06T03:00:38;5;4;
81640;PMS5003;71053;50.722;-1.944;2023-08-06T03:03:04;3;3;
81640;PMS5003;71053;50.722;-1.944;2023-08-06T03:05:29;5;4;
81640;PMS5003;71053;50.722;-1.944;2023-08-06T03:07:54;4;4;
81640;PMS5003;71053;50.722;-1.944;2023-08-06T03:10:20;2;2;
81640;PMS5003;71053;50.722;-1.944;2023-08-06T03:12:45;3;3;
81640;PMS5003;71053;50.722;-1.944;2023-08-06T03:15:10;3;3;
81640;PMS5003;71053;50.722;-1.944;2023-08-06T03:17:35;3;3;
81640;PMS5003;71053;50.722;-1.944;2023-08-06T03:20:00;4;4;
81640;PMS5003;71053;50.722;-1.944;2023-08-06T03:22:26;3;3;
81640;PMS5003;71053;50.722;-1.944;2023-08-06T03:24:51;4;4;
81640;PMS5003;71053;50.722;-1.944;2023-08-06T03:27:17;3;3;
81640;PMS5003;71053;50.722;-1.944;2023-08-06T03:29:42;4;4;
81640;PMS5003;71053;50.722;-1.944;2023-08-06T03:32:07;4;4;
81640;PMS5003;71053;50.722;-1.944;2023-08-06T03:34:33;3;3;
81640;PMS5003;71053;50.722;-1.944;2023-08-06T03:36:58;5;5;
81640;PMS5003;71053;50.722;-1.944;2023-08-06T03:39:24;5;5;
81640;PMS5003;71053;50.722;-1.944;2023-08-06T03:41:49;4;3;
81640;PMS5003;71053;50.722;-1.944;2023-08-06T03:44:14;3;3;
81640;PMS5003;71053;50.722;-1.944;2023-08-06T03:46:39;5;4;
81640;PMS5003;71053;50.722;-1.944;2023-08-06T03:49:05;2;2;
81640;PMS5003;71053;50.722;-1.944;2023-08-06T03:51:30;4;4;
81640;PMS5003;71053;50.722;-1.944;2023-08-06T03:53:56;2;2;
81640;PMS5003;71053;50.722;-1.944;2023-08-06T03:56:21;4;4;
81640;PMS5003;71053;50.722;-1.944;2023-08-06T03:58:46;6;6;
81640;PMS5003;71053;50.722;-1.944;2023-08-06T04:01:12;3;3;
81640;PMS5003;71053;50.722;-1.944;2023-08-06T04:03:37;5;5;
81640;PMS5003;71053;50.722;-1.944;2023-08-06T04:06:03;4;4;
81640;PMS5003;71053;50.722;-1.944;2023-08-06T04:08:28;4;4;
81640;PMS5003;71053;50.722;-1.944;2023-08-06T04:10:53;4;4;
81640;PMS5003;71053;50.722;-1.944;2023-08-06T04:13:19;6;6;
81640;PMS5003;71053;50.722;-1.944;2023-08-06T04:15:44;5;5;
81640;PMS5003;71053;50.722;-1.944;2023-08-06T04:18:09;5;5;
81640;PMS5003;71053;50.722;-1.944;2023-08-06T04:20:35;5;5;
81640;PMS5003;71053;50.722;-1.944;2023-08-06T04:23:01;5;4;
81640;PMS5003;71053;50.722;-1.944;2023-08-06T04:25:25;5;5;
81640;PMS5003;71053;50.722;-1.944;2023-08-06T04:27:51;4;3;
81640;PMS5003;71053;50.722;-1.944;2023-08-06T04:30:16;4;4;
81640;PMS5003;71053;50.722;-1.944;2023-08-06T04:32:41;4;4;
81640;PMS5003;71053;50.722;-1.944;2023-08-06T04:35:07;4;4;
81640;PMS5003;71053;50.722;-1.944;2023-08-06T04:37:32;4;4;
81640;PMS5003;71053;50.722;-1.944;2023-08-06T04:39:57;5;4;
81640;PMS5003;71053;50.722;-1.944;2023-08-06T04:42:23;5;5;
81640;PMS5003;71053;50.722;-1.944;2023-08-06T04:44:48;4;4;
81640;PMS5003;71053;50.722;-1.944;2023-08-06T04:47:13;3;2;
81640;PMS5003;71053;50.722;-1.944;2023-08-06T04:49:39;3;3;
81640;PMS5003;71053;50.722;-1.944;2023-08-06T04:52:04;3;3;
81640;PMS5003;71053;50.722;-1.944;2023-08-06T04:54:29;5;4;
81640;PMS5003;71053;50.722;-1.944;2023-08-06T04:56:54;7;7;
81640;PMS5003;71053;50.722;-1.944;2023-08-06T04:59:20;4;4;
81640;PMS5003;71053;50.722;-1.944;2023-08-06T05:01:45;4;4;
81640;PMS5003;71053;50.722;-1.944;2023-08-06T05:04:11;3;3;
81640;PMS5003;71053;50.722;-1.944;2023-08-06T05:06:36;4;4;
81640;PMS5003;71053;50.722;-1.944;2023-08-06T05:09:01;5;5;
81640;PMS5003;71053;50.722;-1.944;2023-08-06T05:11:27;4;4;
81640;PMS5003;71053;50.722;-1.944;2023-08-06T05:13:52;5;4;
81640;PMS5003;71053;50.722;-1.944;2023-08-06T05:16:17;6;6;
81640;PMS5003;71053;50.722;-1.944;2023-08-06T05:18:43;4;4;
81640;PMS5003;71053;50.722;-1.944;2023-08-06T05:21:08;6;6;
81640;PMS5003;71053;50.722;-1.944;2023-08-06T05:23:34;3;3;
81640;PMS5003;71053;50.722;-1.944;2023-08-06T05:25:59;3;3;
81640;PMS5003;71053;50.722;-1.944;2023-08-06T05:28:24;5;5;
81640;PMS5003;71053;50.722;-1.944;2023-08-06T05:30:50;4;4;
81640;PMS5003;71053;50.722;-1.944;2023-08-06T05:33:15;5;5;
81640;PMS5003;71053;50.722;-1.944;2023-08-06T05:35:41;4;4;
81640;PMS5003;71053;50.722;-1.944;2023-08-06T05:38:06;6;5;
81640;PMS5003;71053;50.722;-1.944;2023-08-06T05:40:33;5;5;
81640;PMS5003;71053;50.722;-1.944;2023-08-06T05:42:57;6;4;
81640;PMS5003;71053;50.722;-1.944;2023-08-06T05:45:22;2;2;
81640;PMS5003;71053;50.722;-1.944;2023-08-06T05:47:47;8;5;
81640;PMS5003;71053;50.722;-1.944;2023-08-06T05:50:13;6;5;
81640;PMS5003;71053;50.722;-1.944;2023-08-06T05:52:38;5;5;
81640;PMS5003;71053;50.722;-1.944;2023-08-06T05:55:04;6;6;
81640;PMS5003;71053;50.722;-1.944;2023-08-06T05:57:29;5;5;
81640;PMS5003;71053;50.722;-1.944;2023-08-06T05:59:54;5;5;
81640;PMS5003;71053;50.722;-1.944;2023-08-06T06:02:20;5;4;
81640;PMS5003;71053;50.722;-1.944;2023-08-06T06:04:45;4;4;
81640;PMS5003;71053;50.722;-1.944;2023-08-06T06:07:10;5;5;
81640;PMS5003;71053;50.722;-1.944;2023-08-06T06:09:36;4;4;
81640;PMS5003;71053;50.722;-1.944;2023-08-06T06:12:01;5;5;
81640;PMS5003;71053;50.722;-1.944;2023-08-06T06:14:26;4;3;
81640;PMS5003;71053;50.722;-1.944;2023-08-06T06:16:52;5;5;
81640;PMS5003;71053;50.722;-1.944;2023-08-06T06:19:17;6;5;
81640;PMS5003;71053;50.722;-1.944;2023-08-06T06:21:42;4;4;
81640;PMS5003;71053;50.722;-1.944;2023-08-06T06:24:08;5;5;
81640;PMS5003;71053;50.722;-1.944;2023-08-06T06:26:33;7;6;
81640;PMS5003;71053;50.722;-1.944;2023-08-06T06:28:58;4;4;
81640;PMS5003;71053;50.722;-1.944;2023-08-06T06:31:24;6;6;
81640;PMS5003;71053;50.722;-1.944;2023-08-06T06:33:49;6;6;
81640;PMS5003;71053;50.722;-1.944;2023-08-06T06:36:15;3;3;
81640;PMS5003;71053;50.722;-1.944;2023-08-06T06:38:40;7;7;
81640;PMS5003;71053;50.722;-1.944;2023-08-06T06:41:06;5;5;
81640;PMS5003;71053;50.722;-1.944;2023-08-06T06:43:31;5;4;
81640;PMS5003;71053;50.722;-1.944;2023-08-06T06:45:56;4;4;
81640;PMS5003;71053;50.722;-1.944;2023-08-06T06:48:22;3;3;
81640;PMS5003;71053;50.722;-1.944;2023-08-06T06:50:47;4;4;
81640;PMS5003;71053;50.722;-1.944;2023-08-06T06:53:12;4;3;
81640;PMS5003;71053;50.722;-1.944;2023-08-06T06:55:38;2;2;
81640;PMS5003;71053;50.722;-1.944;2023-08-06T06:58:03;5;5;
81640;PMS5003;71053;50.722;-1.944;2023-08-06T07:00:28;3;3;
81640;PMS5003;71053;50.722;-1.944;2023-08-06T07:02:54;4;3;
81640;PMS5003;71053;50.722;-1.944;2023-08-06T07:05:19;3;3;
81640;PMS5003;71053;50.722;-1.944;2023-08-06T07:07:44;5;5;
81640;PMS5003;71053;50.722;-1.944;2023-08-06T07:10:09;7;7;
81640;PMS5003;71053;50.722;-1.944;2023-08-06T07:12:35;4;4;
81640;PMS5003;71053;50.722;-1.944;2023-08-06T07:15:00;5;4;
81640;PMS5003;71053;50.722;-1.944;2023-08-06T07:17:25;5;5;
81640;PMS5003;71053;50.722;-1.944;2023-08-06T07:19:51;3;3;
81640;PMS5003;71053;50.722;-1.944;2023-08-06T07:22:16;3;3;
81640;PMS5003;71053;50.722;-1.944;2023-08-06T07:24:41;4;3;
81640;PMS5003;71053;50.722;-1.944;2023-08-06T07:27:07;4;4;
81640;PMS5003;71053;50.722;-1.944;2023-08-06T07:29:32;3;3;
81640;PMS5003;71053;50.722;-1.944;2023-08-06T07:31:58;6;6;
81640;PMS5003;71053;50.722;-1.944;2023-08-06T07:34:23;3;2;
81640;PMS5003;71053;50.722;-1.944;2023-08-06T07:36:48;2;2;
81640;PMS5003;71053;50.722;-1.944;2023-08-06T07:39:13;3;3;
81640;PMS5003;71053;50.722;-1.944;2023-08-06T07:41:39;3;3;
81640;PMS5003;71053;50.722;-1.944;2023-08-06T07:44:04;3;3;
81640;PMS5003;71053;50.722;-1.944;2023-08-06T07:46:29;3;3;
81640;PMS5003;71053;50.722;-1.944;2023-08-06T07:48:54;2;2;
81640;PMS5003;71053;50.722;-1.944;2023-08-06T07:51:20;2;2;
81640;PMS5003;71053;50.722;-1.944;2023-08-06T07:53:45;3;3;
81640;PMS5003;71053;50.722;-1.944;2023-08-06T07:56:10;3;3;
81640;PMS5003;71053;50.722;-1.944;2023-08-06T07:58:35;3;3;
81640;PMS5003;71053;50.722;-1.944;2023-08-06T08:01:01;2;2;
81640;PMS5003;71053;50.722;-1.944;2023-08-06T08:03:26;3;3;
81640;PMS5003;71053;50.722;-1.944;2023-08-06T08:05:53;3;3;
81640;PMS5003;71053;50.722;-1.944;2023-08-06T08:08:16;4;3;
81640;PMS5003;71053;50.722;-1.944;2023-08-06T08:10:42;0;0;
81640;PMS5003;71053;50.722;-1.944;2023-08-06T08:13:07;3;3;
81640;PMS5003;71053;50.722;-1.944;2023-08-06T08:15:32;2;2;
81640;PMS5003;71053;50.722;-1.944;2023-08-06T08:17:57;1;1;
81640;PMS5003;71053;50.722;-1.944;2023-08-06T08:20:22;3;2;
81640;PMS5003;71053;50.722;-1.944;2023-08-06T08:22:48;1;1;
81640;PMS5003;71053;50.722;-1.944;2023-08-06T08:25:13;2;2;
81640;PMS5003;71053;50.722;-1.944;2023-08-06T08:27:38;1;1;
81640;PMS5003;71053;50.722;-1.944;2023-08-06T08:30:04;2;2;
81640;PMS5003;71053;50.722;-1.944;2023-08-06T08:32:28;2;2;
81640;PMS5003;71053;50.722;-1.944;2023-08-06T08:34:54;2;2;
81640;PMS5003;71053;50.722;-1.944;2023-08-06T08:37:19;0;0;
81640;PMS5003;71053;50.722;-1.944;2023-08-06T08:39:44;1;1;
81640;PMS5003;71053;50.722;-1.944;2023-08-06T08:42:09;4;4;
81640;PMS5003;71053;50.722;-1.944;2023-08-06T08:44:34;4;4;
81640;PMS5003;71053;50.722;-1.944;2023-08-06T08:47:00;2;2;
81640;PMS5003;71053;50.722;-1.944;2023-08-06T08:49:25;3;3;
81640;PMS5003;71053;50.722;-1.944;2023-08-06T08:51:50;3;3;
81640;PMS5003;71053;50.722;-1.944;2023-08-06T08:54:16;2;2;
81640;PMS5003;71053;50.722;-1.944;2023-08-06T08:56:41;1;1;
81640;PMS5003;71053;50.722;-1.944;2023-08-06T08:59:07;1;1;
81640;PMS5003;71053;50.722;-1.944;2023-08-06T09:01:32;0;0;
81640;PMS5003;71053;50.722;-1.944;2023-08-06T09:03:57;0;0;
81640;PMS5003;71053;50.722;-1.944;2023-08-06T09:06:22;1;1;
81640;PMS5003;71053;50.722;-1.944;2023-08-06T09:08:50;1;1;
81640;PMS5003;71053;50.722;-1.944;2023-08-06T09:11:13;9;8;
81640;PMS5003;71053;50.722;-1.944;2023-08-06T09:13:38;0;0;
81640;PMS5003;71053;50.722;-1.944;2023-08-06T09:16:04;1;1;
81640;PMS5003;71053;50.722;-1.944;2023-08-06T09:18:29;1;1;
81640;PMS5003;71053;50.722;-1.944;2023-08-06T09:20:55;2;2;
81640;PMS5003;71053;50.722;-1.944;2023-08-06T09:23:20;1;1;
81640;PMS5003;71053;50.722;-1.944;2023-08-06T09:25:45;1;1;
81640;PMS5003;71053;50.722;-1.944;2023-08-06T09:28:10;1;1;
81640;PMS5003;71053;50.722;-1.944;2023-08-06T09:30:36;0;0;
81640;PMS5003;71053;50.722;-1.944;2023-08-06T09:33:00;1;1;
81640;PMS5003;71053;50.722;-1.944;2023-08-06T09:35:28;1;1;
81640;PMS5003;71053;50.722;-1.944;2023-08-06T09:37:51;0;0;
81640;PMS5003;71053;50.722;-1.944;2023-08-06T09:40:25;2;2;
81640;PMS5003;71053;50.722;-1.944;2023-08-06T09:42:42;1;1;
81640;PMS5003;71053;50.722;-1.944;2023-08-06T09:45:07;2;2;
81640;PMS5003;71053;50.722;-1.944;2023-08-06T09:47:31;1;1;
81640;PMS5003;71053;50.722;-1.944;2023-08-06T09:49:57;2;2;
81640;PMS5003;71053;50.722;-1.944;2023-08-06T09:52:22;1;1;
81640;PMS5003;71053;50.722;-1.944;2023-08-06T09:54:47;2;2;
81640;PMS5003;71053;50.722;-1.944;2023-08-06T09:57:12;1;1;
81640;PMS5003;71053;50.722;-1.944;2023-08-06T09:59:37;2;2;
81640;PMS5003;71053;50.722;-1.944;2023-08-06T10:02:03;2;2;
81640;PMS5003;71053;50.722;-1.944;2023-08-06T10:04:28;2;2;
81640;PMS5003;71053;50.722;-1.944;2023-08-06T10:06:53;2;2;
81640;PMS5003;71053;50.722;-1.944;2023-08-06T10:09:18;2;2;
81640;PMS5003;71053;50.722;-1.944;2023-08-06T10:11:43;2;1;
81640;PMS5003;71053;50.722;-1.944;2023-08-06T10:14:13;2;2;
81640;PMS5003;71053;50.722;-1.944;2023-08-06T10:16:34;1;1;
81640;PMS5003;71053;50.722;-1.944;2023-08-06T10:18:59;0;0;
81640;PMS5003;71053;50.722;-1.944;2023-08-06T10:21:24;1;1;
81640;PMS5003;71053;50.722;-1.944;2023-08-06T10:23:53;2;2;
81640;PMS5003;71053;50.722;-1.944;2023-08-06T10:26:15;2;2;
81640;PMS5003;71053;50.722;-1.944;2023-08-06T10:28:39;1;1;
81640;PMS5003;71053;50.722;-1.944;2023-08-06T10:31:04;1;1;
81640;PMS5003;71053;50.722;-1.944;2023-08-06T10:35:55;1;1;
81640;PMS5003;71053;50.722;-1.944;2023-08-06T10:38:20;1;1;
81640;PMS5003;71053;50.722;-1.944;2023-08-06T10:40:48;1;1;
81640;PMS5003;71053;50.722;-1.944;2023-08-06T10:43:24;0;0;
81640;PMS5003;71053;50.722;-1.944;2023-08-06T10:45:36;1;1;
81640;PMS5003;71053;50.722;-1.944;2023-08-06T10:48:00;2;2;
81640;PMS5003;71053;50.722;-1.944;2023-08-06T10:50:25;2;1;
81640;PMS5003;71053;50.722;-1.944;2023-08-06T10:52:50;2;2;
81640;PMS5003;71053;50.722;-1.944;2023-08-06T10:57:41;2;2;
81640;PMS5003;71053;50.722;-1.944;2023-08-06T11:00:08;1;1;
81640;PMS5003;71053;50.722;-1.944;2023-08-06T11:02:33;2;1;
81640;PMS5003;71053;50.722;-1.944;2023-08-06T11:04:56;2;2;
81640;PMS5003;71053;50.722;-1.944;2023-08-06T11:07:21;2;2;
81640;PMS5003;71053;50.722;-1.944;2023-08-06T11:09:49;1;1;
81640;PMS5003;71053;50.722;-1.944;2023-08-06T11:12:11;2;1;
81640;PMS5003;71053;50.722;-1.944;2023-08-06T11:14:37;2;2;
81640;PMS5003;71053;50.722;-1.944;2023-08-06T11:17:02;2;2;
81640;PMS5003;71053;50.722;-1.944;2023-08-06T11:19:27;2;2;
81640;PMS5003;71053;50.722;-1.944;2023-08-06T11:21:52;2;2;
81640;PMS5003;71053;50.722;-1.944;2023-08-06T11:24:17;2;2;
81640;PMS5003;71053;50.722;-1.944;2023-08-06T11:26:42;1;1;
81640;PMS5003;71053;50.722;-1.944;2023-08-06T11:29:07;1;1;
81640;PMS5003;71053;50.722;-1.944;2023-08-06T11:31:32;2;2;
81640;PMS5003;71053;50.722;-1.944;2023-08-06T11:33:58;1;1;
81640;PMS5003;71053;50.722;-1.944;2023-08-06T11:38:48;1;1;
81640;PMS5003;71053;50.722;-1.944;2023-08-06T11:41:13;2;2;
81640;PMS5003;71053;50.722;-1.944;2023-08-06T11:43:38;2;1;
81640;PMS5003;71053;50.722;-1.944;2023-08-06T11:46:03;1;1;
81640;PMS5003;71053;50.722;-1.944;2023-08-06T11:48:28;2;2;
81640;PMS5003;71053;50.722;-1.944;2023-08-06T11:50:54;2;2;
81640;PMS5003;71053;50.722;-1.944;2023-08-06T11:53:19;1;1;
81640;PMS5003;71053;50.722;-1.944;2023-08-06T11:55:44;2;2;
81640;PMS5003;71053;50.722;-1.944;2023-08-06T11:58:09;1;1;
81640;PMS5003;71053;50.722;-1.944;2023-08-06T12:00:34;2;2;
81640;PMS5003;71053;50.722;-1.944;2023-08-06T12:02:59;2;2;
81640;PMS5003;71053;50.722;-1.944;2023-08-06T12:05:28;1;1;
81640;PMS5003;71053;50.722;-1.944;2023-08-06T12:07:50;2;2;
81640;PMS5003;71053;50.722;-1.944;2023-08-06T12:10:15;3;3;
81640;PMS5003;71053;50.722;-1.944;2023-08-06T12:12:39;1;1;
81640;PMS5003;71053;50.722;-1.944;2023-08-06T12:15:05;2;2;
81640;PMS5003;71053;50.722;-1.944;2023-08-06T12:17:29;1;1;
81640;PMS5003;71053;50.722;-1.944;2023-08-06T12:19:54;2;2;
81640;PMS5003;71053;50.722;-1.944;2023-08-06T12:22:20;1;1;
81640;PMS5003;71053;50.722;-1.944;2023-08-06T12:24:45;0;0;
81640;PMS5003;71053;50.722;-1.944;2023-08-06T12:27:10;1;1;
81640;PMS5003;71053;50.722;-1.944;2023-08-06T12:29:35;1;1;
81640;PMS5003;71053;50.722;-1.944;2023-08-06T12:32:00;0;0;
81640;PMS5003;71053;50.722;-1.944;2023-08-06T12:34:25;2;2;
81640;PMS5003;71053;50.722;-1.944;2023-08-06T12:36:50;1;1;
81640;PMS5003;71053;50.722;-1.944;2023-08-06T12:39:15;0;0;
81640;PMS5003;71053;50.722;-1.944;2023-08-06T12:41:41;0;0;
81640;PMS5003;71053;50.722;-1.944;2023-08-06T12:44:06;0;0;
81640;PMS5003;71053;50.722;-1.944;2023-08-06T12:46:31;0;0;
81640;PMS5003;71053;50.722;-1.944;2023-08-06T12:48:56;0;0;
81640;PMS5003;71053;50.722;-1.944;2023-08-06T12:51:21;0;0;
81640;PMS5003;71053;50.722;-1.944;2023-08-06T12:53:46;0;0;
81640;PMS5003;71053;50.722;-1.944;2023-08-06T12:56:11;0;0;
81640;PMS5003;71053;50.722;-1.944;2023-08-06T12:58:36;1;1;
81640;PMS5003;71053;50.722;-1.944;2023-08-06T13:01:01;1;1;
81640;PMS5003;71053;50.722;-1.944;2023-08-06T13:03:26;2;2;
81640;PMS5003;71053;50.722;-1.944;2023-08-06T13:05:51;2;2;
81640;PMS5003;71053;50.722;-1.944;2023-08-06T13:08:16;1;1;
81640;PMS5003;71053;50.722;-1.944;2023-08-06T13:10:41;2;2;
81640;PMS5003;71053;50.722;-1.944;2023-08-06T13:13:06;2;2;
81640;PMS5003;71053;50.722;-1.944;2023-08-06T13:15:31;1;1;
81640;PMS5003;71053;50.722;-1.944;2023-08-06T13:17:57;1;1;
81640;PMS5003;71053;50.722;-1.944;2023-08-06T13:20:22;2;2;
81640;PMS5003;71053;50.722;-1.944;2023-08-06T13:22:47;2;2;
81640;PMS5003;71053;50.722;-1.944;2023-08-06T13:25:12;1;1;
81640;PMS5003;71053;50.722;-1.944;2023-08-06T13:27:37;0;0;
81640;PMS5003;71053;50.722;-1.944;2023-08-06T13:30:02;0;0;
81640;PMS5003;71053;50.722;-1.944;2023-08-06T13:32:27;1;0;
81640;PMS5003;71053;50.722;-1.944;2023-08-06T13:34:52;0;0;
81640;PMS5003;71053;50.722;-1.944;2023-08-06T13:37:17;1;1;
81640;PMS5003;71053;50.722;-1.944;2023-08-06T13:39:42;1;1;
81640;PMS5003;71053;50.722;-1.944;2023-08-06T13:42:07;1;1;
81640;PMS5003;71053;50.722;-1.944;2023-08-06T13:44:32;1;1;
81640;PMS5003;71053;50.722;-1.944;2023-08-06T13:46:57;0;0;
81640;PMS5003;71053;50.722;-1.944;2023-08-06T13:49:22;0;0;
81640;PMS5003;71053;50.722;-1.944;2023-08-06T13:51:48;1;1;
81640;PMS5003;71053;50.722;-1.944;2023-08-06T13:54:13;1;1;
81640;PMS5003;71053;50.722;-1.944;2023-08-06T13:56:38;2;2;
81640;PMS5003;71053;50.722;-1.944;2023-08-06T13:59:04;1;1;
81640;PMS5003;71053;50.722;-1.944;2023-08-06T14:01:30;2;2;
81640;PMS5003;71053;50.722;-1.944;2023-08-06T14:03:56;2;2;
81640;PMS5003;71053;50.722;-1.944;2023-08-06T14:06:22;2;1;
81640;PMS5003;71053;50.722;-1.944;2023-08-06T14:08:48;1;1;
81640;PMS5003;71053;50.722;-1.944;2023-08-06T14:11:13;9;9;
81640;PMS5003;71053;50.722;-1.944;2023-08-06T14:13:38;1;1;
81640;PMS5003;71053;50.722;-1.944;2023-08-06T14:16:03;2;2;
81640;PMS5003;71053;50.722;-1.944;2023-08-06T14:18:28;3;2;
81640;PMS5003;71053;50.722;-1.944;2023-08-06T14:20:53;2;2;
81640;PMS5003;71053;50.722;-1.944;2023-08-06T14:23:18;4;3;
81640;PMS5003;71053;50.722;-1.944;2023-08-06T14:25:43;1;1;
81640;PMS5003;71053;50.722;-1.944;2023-08-06T14:28:08;0;0;
81640;PMS5003;71053;50.722;-1.944;2023-08-06T14:30:33;0;0;
81640;PMS5003;71053;50.722;-1.944;2023-08-06T14:32:58;1;1;
81640;PMS5003;71053;50.722;-1.944;2023-08-06T14:35:23;2;2;
81640;PMS5003;71053;50.722;-1.944;2023-08-06T14:37:48;0;0;
81640;PMS5003;71053;50.722;-1.944;2023-08-06T14:40:13;1;1;
81640;PMS5003;71053;50.722;-1.944;2023-08-06T14:42:38;1;1;
81640;PMS5003;71053;50.722;-1.944;2023-08-06T14:45:05;2;2;
81640;PMS5003;71053;50.722;-1.944;2023-08-06T14:47:29;1;1;
81640;PMS5003;71053;50.722;-1.944;2023-08-06T14:49:55;1;1;
81640;PMS5003;71053;50.722;-1.944;2023-08-06T14:52:21;0;0;
81640;PMS5003;71053;50.722;-1.944;2023-08-06T14:54:47;2;2;
81640;PMS5003;71053;50.722;-1.944;2023-08-06T14:57:13;1;1;
81640;PMS5003;71053;50.722;-1.944;2023-08-06T14:59:38;3;2;
81640;PMS5003;71053;50.722;-1.944;2023-08-06T15:02:04;0;0;
81640;PMS5003;71053;50.722;-1.944;2023-08-06T15:04:30;1;1;
81640;PMS5003;71053;50.722;-1.944;2023-08-06T15:06:56;3;3;
81640;PMS5003;71053;50.722;-1.944;2023-08-06T15:09:22;1;1;
81640;PMS5003;71053;50.722;-1.944;2023-08-06T15:11:48;2;2;
81640;PMS5003;71053;50.722;-1.944;2023-08-06T15:14:13;1;1;
81640;PMS5003;71053;50.722;-1.944;2023-08-06T15:16:39;2;2;
81640;PMS5003;71053;50.722;-1.944;2023-08-06T15:19:05;2;2;
81640;PMS5003;71053;50.722;-1.944;2023-08-06T15:21:31;2;2;
81640;PMS5003;71053;50.722;-1.944;2023-08-06T15:23:57;1;1;
81640;PMS5003;71053;50.722;-1.944;2023-08-06T15:26:23;1;1;
81640;PMS5003;71053;50.722;-1.944;2023-08-06T15:28:48;1;1;
81640;PMS5003;71053;50.722;-1.944;2023-08-06T15:31:14;2;1;
81640;PMS5003;71053;50.722;-1.944;2023-08-06T15:33:40;1;1;
81640;PMS5003;71053;50.722;-1.944;2023-08-06T15:36:06;1;1;
81640;PMS5003;71053;50.722;-1.944;2023-08-06T15:38:32;1;1;
81640;PMS5003;71053;50.722;-1.944;2023-08-06T15:40:58;1;1;
81640;PMS5003;71053;50.722;-1.944;2023-08-06T15:43:23;0;0;
81640;PMS5003;71053;50.722;-1.944;2023-08-06T15:45:49;1;1;
81640;PMS5003;71053;50.722;-1.944;2023-08-06T15:48:15;1;1;
81640;PMS5003;71053;50.722;-1.944;2023-08-06T15:50:40;2;2;
81640;PMS5003;71053;50.722;-1.944;2023-08-06T15:53:05;1;1;
81640;PMS5003;71053;50.722;-1.944;2023-08-06T15:55:30;2;2;
81640;PMS5003;71053;50.722;-1.944;2023-08-06T15:57:55;1;1;
81640;PMS5003;71053;50.722;-1.944;2023-08-06T16:00:20;1;1;
81640;PMS5003;71053;50.722;-1.944;2023-08-06T16:02:45;2;2;
81640;PMS5003;71053;50.722;-1.944;2023-08-06T16:05:10;2;2;
81640;PMS5003;71053;50.722;-1.944;2023-08-06T16:07:35;2;2;
81640;PMS5003;71053;50.722;-1.944;2023-08-06T16:10:01;2;2;
81640;PMS5003;71053;50.722;-1.944;2023-08-06T16:12:26;1;1;
81640;PMS5003;71053;50.722;-1.944;2023-08-06T16:14:51;1;1;
81640;PMS5003;71053;50.722;-1.944;2023-08-06T16:17:16;1;1;
81640;PMS5003;71053;50.722;-1.944;2023-08-06T16:19:41;2;2;
81640;PMS5003;71053;50.722;-1.944;2023-08-06T16:22:06;1;1;
81640;PMS5003;71053;50.722;-1.944;2023-08-06T16:24:31;2;2;
81640;PMS5003;71053;50.722;-1.944;2023-08-06T16:26:56;1;1;